Terminal Aerodrome Forecast
Issued by NWS

Home | Current Version | Previous Version | Graphics & Text | Print | Product List | Glossary On
Versions: 1 2 3 4 5 6 7 8 9 10 11 12 13 14 15 16
000
FTUS43 KTOP 240500
TAFMHK
TAF
KMHK 240531Z 2406/2506 34012G20KT 6SM -SN BR OVC012
     FM241000 32013G20KT P6SM OVC012
     FM241500 32012KT P6SM OVC018
     FM242100 29008KT P6SM SCT025
     FM250000 24004KT P6SM SCT200=

USA.gov is the U.S. government's official web portal to all federal, state and local government web resources and services.